Tiempo atmosférico en la estación meteorológica de Fuente De Cantos, Badajoz (602 m.)



Fecha
DESCASC
Temp. máxima en grados centígrados (hora)
DESCASC
Temp. mínima en grados centígrados (hora)
DESCASC
Temp. media en grados centígrados
DESCASC
Racha de viento máxima en m/sg (hora)
DESCASC
Velocidad máxima media en intervalos de 10 minutos(hora)
DESCASC
Precipitaciones diarias en mm
DESCASC
Precipitaciones de 00:00 a 06:00 en mm
DESCASC
Precipitaciones de 06:00 a 12:00 en mm
DESCASC
Precipitaciones de 12:00 a 18:00 en mm
DESCASC
Precipitaciones de 18:00 a 24:00 en mm
DESCASC
20-01-2019 10.5 (16:00) 4.7 (22:30) 7.6 14.72 (11:50) 11.67 (10:50) 1 0.4 0.6 0 0
19-01-2019 9.5 (17:40) 4.4 (04:00) 7 12.22 (21:00) 9.72 (21:00) 2.4 0.6 0 0.8 1
18-01-2019 10.8 (14:20) 2.4 (00:00) 6.6 8.33 (15:20) 6.11 (15:20) 0.2 0 0 0 0.2
17-01-2019 10.9 (16:50) 4.2 (00:00) 7.5 8.33 (17:40) 6.94 (17:40) 0 0 0 0 0
16-01-2019 11.7 (15:50) 3.9 (00:00) 7.8 7.22 (16:20) 5.56 (16:20) 0 0 0 0 0
15-01-2019 14.6 (13:30) 5.3 (00:00) 10 5.28 (15:10) 3.89 (15:10) 0 0 0 0 0
14-01-2019 15.7 (15:30) 4.8 (00:00) 10.3 4.72 (15:40) 3.89 (18:50) 0 0 0 0 0
13-01-2019 14.6 (16:30) 2.2 (00:00) 8.4 6.11 (06:20) 5.83 (06:20) 0 0 0 0 0
12-01-2019 12 (16:00) -0.3 (00:00) 5.8 7.78 (11:40) 6.39 (11:30) 0 0 0 0 0
11-01-2019 9.5 (16:30) 0.3 (00:00) 4.9 16.39 (11:40) 11.67 (11:40) 0 0 0 0 0
10-01-2019 12.9 (13:50) 4.5 (00:00) 8.7 9.17 (14:20) 6.67 (14:20) 0 0 0 0 0
09-01-2019 15.6 (14:40) 5.8 (00:00) 10.7 6.67 (14:50) 4.44 (14:50) 0 0 0 0 0
08-01-2019 15.6 (15:30) 3.5 (00:00) 9.6 6.11 (08:20) 5.83 (08:20) 0 0 0 0 0
07-01-2019 15.7 (16:00) 5.2 (00:00) 10.4 7.78 (16:00) 6.11 (16:50) 0 0 0 0 0
06-01-2019 16.5 (16:00) 3.5 (00:00) 10 3.89 (01:30) 3.61 (01:30) 0 0 0 0 0
05-01-2019 14.8 (15:20) 1.7 (00:00) 8.3 6.39 (09:20) 6.11 (09:20) 0 0 0 0 0
04-01-2019 13.2 (15:40) 4.1 (00:00) 8.6 7.22 (15:40) 5 (00:10) 0 0 0 0 0
03-01-2019 12.8 (15:10) 4.4 (00:00) 8.6 6.94 (12:30) 5.28 (12:20) 0 0 0 0 0
02-01-2019 15.6 (15:50) 7.1 (00:00) 11.4 5 (18:50) 4.17 (17:40) 0 0 0 0 0
01-01-2019 17.7 (15:30) 6.5 (00:00) 12.1 6.39 (00:20) 6.11 (00:20) 0 0 0 0 0
31-12-2018 15.3 (16:00) 3.7 (00:00) 9.5 6.39 (13:10) 5.28 (03:50) 0 0 0 0 0
30-12-2018 13.7 (15:10) 3 (00:00) 8.3 9.72 (14:00) 7.22 (16:20) 0 0 0 0 0
29-12-2018 11.8 (15:00) 2.6 (00:00) 7.2 11.39 (23:50) 8.89 (10:00) 0 0 0 0 0
28-12-2018 9.6 (00:20) 3.4 (00:00) 6.5 4.72 (15:30) 3.06 (15:10) 0 0 0 0 0
27-12-2018 14.9 (15:30) 6.4 (00:00) 10.6 6.11 (17:30) 4.72 (17:30) 0 0 0 0 0
26-12-2018 13.8 (15:40) 8.5 (00:00) 11.2 6.94 (04:50) 6.11 (08:30) 0 0 0 0 0
25-12-2018 17.2 (16:10) 7.4 (00:00) 12.3 5.56 (09:10) 4.72 (09:20) 0 0 0 0 0
24-12-2018 16.5 (15:10) 6.5 (03:30) 11.5 6.39 (07:30) 6.11 (07:30) 0 0 0 0 0
23-12-2018 17.8 (15:10) 7.7 (00:00) 12.7 8.06 (06:50) 6.94 (08:10) 0 0 0 0 0

Gráficas

Temp. máximas Temp. mínimas Temp. medias Precipitaciones Rachas de viento máximas Velocidades máximas media en intervalos de 10 minutos

Datos horarios

Fecha y hora oficial Temperatura (ºC) Velocidad del viento (km/h) Dirección del viento Racha (km/h) Dirección de racha Precipitación (mm) Presión (hPa) Tendencia (hPa) Humedad (%)
2019-01-21 23:00:00 4.7 5 Sudoeste 7 Sudoeste 0 -- -- 81
2019-01-21 22:00:00 4.7 5 Sur 13 Noroeste 0 -- -- 81
2019-01-21 21:00:00 4.9 12 Norte 15 Norte 0 -- -- 80
2019-01-21 20:00:00 5.4 14 Norte 19 Noroeste 0 -- -- 81
2019-01-21 19:00:00 6.2 12 Norte 14 Norte 0 -- -- 76
2019-01-21 18:00:00 9.3 9 Norte 14 Norte 0 -- -- 64
2019-01-21 17:00:00 9.7 9 Norte 15 Norte 0 -- -- 62
2019-01-21 16:00:00 9.9 8 Norte 21 Noroeste 0 -- -- 62
2019-01-21 15:00:00 9.6 8 Norte 20 Nordeste 0 -- -- 66
2019-01-21 14:00:00 9.3 8 Noroeste 16 Noroeste 0 -- -- 73
2019-01-21 13:00:00 7.8 8 Noroeste 13 Noroeste 0 -- -- 79
2019-01-21 12:00:00 6.2 5 Noroeste 11 Noroeste 0 -- -- 85
2019-01-21 11:00:00 4.5 5 Noroeste 9 Noroeste 0 -- -- 89
2019-01-21 10:00:00 3.2 4 Oeste 7 Noroeste 0 -- -- 91
2019-01-21 09:00:00 2.2 3 Oeste 6 Oeste 0 -- -- 93
2019-01-21 08:00:00 2.2 3 Oeste 8 Sudoeste 0 -- -- 92
2019-01-21 07:00:00 2.4 4 Sudoeste 8 Sudoeste 0 -- -- 91
2019-01-21 06:00:00 2.8 4 Sudoeste 10 Sudoeste 0 -- -- 90
2019-01-21 05:00:00 3 3 Sur 8 Oeste 0 -- -- 89
2019-01-21 04:00:00 3.2 5 Sudoeste 9 Oeste 0 -- -- 87
2019-01-21 03:00:00 3.6 6 Sudoeste 11 Oeste 0 -- -- 85
2019-01-21 02:00:00 3.7 4 Sudoeste 10 Oeste 0 -- -- 85
2019-01-21 01:00:00 4.1 8 Oeste 12 Oeste 0 -- -- 83
2019-01-21 00:00:00 4.7 7 Oeste 12 Noroeste 0 -- -- 81
2019-01-20 23:00:00 5.2 8 Oeste 21 Noroeste 0 -- -- 81
2019-01-20 22:00:00 5.2 17 Noroeste 20 Noroeste 0 -- -- 82
2019-01-20 21:00:00 5.7 14 Noroeste 17 Noroeste 0 -- -- 81
2019-01-20 20:00:00 6.7 13 Noroeste 20 Norte 0 -- -- 78
2019-01-20 19:00:00 8 18 Norte 32 Noroeste 0 -- -- 73
2019-01-20 18:00:00 9.4 27 Noroeste 41 Noroeste 0 -- -- 64
2019-01-20 17:00:00 10.3 36 Noroeste 46 Noroeste 0 -- -- 64
2019-01-20 16:00:00 10.5 30 Noroeste 41 Noroeste 0 -- -- 68
2019-01-20 15:00:00 10 32 Noroeste 44 Noroeste 0 -- -- 72
2019-01-20 14:00:00 9.5 34 Noroeste 48 Noroeste 0 -- -- 74
2019-01-20 13:00:00 9 37 Noroeste 50 Noroeste 0 -- -- 77
2019-01-20 12:00:00 8.2 35 Noroeste 53 Noroeste 0 -- -- 80
2019-01-20 11:00:00 7.3 40 Noroeste 52 Noroeste 0 -- -- 85
2019-01-20 10:00:00 6.9 33 Noroeste 44 Noroeste 0 -- -- 92
2019-01-20 09:00:00 7 34 Noroeste 47 Noroeste 0 -- -- 95
2019-01-20 08:00:00 7.3 31 Noroeste 39 Noroeste 0.4 -- -- 97
2019-01-20 07:00:00 7.6 29 Oeste 45 Oeste 0.2 -- -- 97
2019-01-20 06:00:00 8.4 31 Oeste 49 Oeste 0 -- -- 98
2019-01-20 05:00:00 8.8 25 Oeste 48 Oeste 0.2 -- -- 97
2019-01-20 04:00:00 8.8 21 Oeste 28 Oeste 0.2 -- -- 98
2019-01-20 03:00:00 8.8 21 Oeste 35 Oeste 0 -- -- 97
2019-01-20 02:00:00 9 23 Oeste 32 Oeste 0 -- -- 97
2019-01-20 01:00:00 9.1 23 Oeste 34 Oeste 0 -- -- 97
2019-01-20 00:00:00 9.1 21 Oeste 26 Oeste 0.2 -- -- 97
2019-01-19 23:00:00 8.6 11 Sudoeste 27 Oeste 0 -- -- 96
2019-01-19 22:00:00 8.9 13 Sudoeste 42 Sudoeste 0.4 -- -- 93
2019-01-19 21:00:00 9.2 35 Sudoeste 44 Sudoeste 0.4 -- -- 92
2019-01-19 20:00:00 9 24 Sur 37 Sur 0 -- -- 93
2019-01-19 19:00:00 9.2 21 Sudoeste 28 Sudoeste 0 -- -- 96
2019-01-19 18:00:00 9.5 20 Sudoeste 28 Sudoeste 0 -- -- 96
2019-01-19 17:00:00 9.1 20 Sudoeste 29 Sudoeste 0.2 -- -- 97
2019-01-19 16:00:00 8.5 16 Sudoeste 22 Sudoeste 0.4 -- -- 97
2019-01-19 15:00:00 8 16 Sudoeste 23 Sudoeste 0.2 -- -- 95
2019-01-19 14:00:00 7.7 14 Sudoeste 19 Sudoeste 0 -- -- 95
2019-01-19 13:00:00 7.3 10 Sudoeste 13 Sudoeste 0 -- -- 96
2019-01-19 12:00:00 6.6 5 Sudoeste 13 Oeste 0 -- -- 97
2019-01-19 11:00:00 6.2 12 Sudoeste 14 Sudoeste 0 -- -- 97
2019-01-19 10:00:00 5.7 5 Sur 12 Sudeste 0 -- -- 97
2019-01-19 09:00:00 4.9 5 Sudeste 8 Sudeste 0 -- -- 97
2019-01-19 08:00:00 4.6 4 Sudeste 10 Este 0 -- -- 97
2019-01-19 07:00:00 4.6 5 Sudeste 12 Este 0 -- -- 97
2019-01-19 06:00:00 4.5 9 Este 14 Este 0.2 -- -- 96
2019-01-19 05:00:00 4.4 10 Este 17 Este 0.2 -- -- 96
2019-01-19 04:00:00 4.4 13 Este 20 Este 0 -- -- 94
2019-01-19 03:00:00 5 8 Este 10 Este 0.2 -- -- 92
2019-01-19 02:00:00 5 4 Sudeste 6 Sur 0 -- -- 90
2019-01-19 01:00:00 5 4 Sudoeste 10 Sudoeste 0 -- -- 88
2019-01-19 00:00:00 5.1 7 Sudoeste 10 Sudoeste 0 -- -- 86
2019-01-18 23:00:00 5.2 7 Oeste 13 Oeste 0 -- -- 85
2019-01-18 22:00:00 5.6 11 Oeste 18 Oeste 0 -- -- 82
2019-01-18 21:00:00 5.9 12 Oeste 15 Oeste 0.2 -- -- 78
2019-01-18 20:00:00 6.1 12 Oeste 15 Oeste 0 -- -- 71
2019-01-18 19:00:00 7 13 Oeste 23 Oeste 0 -- -- 68
2019-01-18 18:00:00 8.5 18 Oeste 24 Oeste 0 -- -- 59
2019-01-18 17:00:00 9.3 18 Oeste 27 Noroeste 0 -- -- 60
2019-01-18 16:00:00 10 16 Oeste 30 Oeste 0 -- -- 56
2019-01-18 15:00:00 10.2 20 Oeste 28 Oeste 0 -- -- 54
2019-01-18 14:00:00 9.9 13 Oeste 19 Oeste 0 -- -- 63
2019-01-18 13:00:00 8.3 6 Noroeste 10 Noroeste 0 -- -- 77
2019-01-18 12:00:00 9 3 Norte 6 Noroeste 0 -- -- 71
2019-01-18 11:00:00 6.2 4 Sudeste 5 Sur 0 -- -- 89
2019-01-18 10:00:00 4 0 Calma 9 Sudeste 0 -- -- 97
2019-01-18 09:00:00 3 2 Sur 5 Sudeste 0 -- -- 96
2019-01-18 08:00:00 3.1 3 Oeste 4 Oeste 0 -- -- 96
2019-01-18 07:00:00 3.1 2 Sudoeste 5 Sudoeste 0 -- -- 96
2019-01-18 06:00:00 3.3 3 Sudoeste 5 Sudoeste 0 -- -- 95
2019-01-18 05:00:00 2.6 3 Sur 5 Sudeste 0 -- -- 95
2019-01-18 04:00:00 2.8 4 Sudoeste 6 Oeste 0 -- -- 94
2019-01-18 03:00:00 3.7 4 Sudoeste 5 Oeste 0 -- -- 93
2019-01-18 02:00:00 3.7 4 Sudoeste 6 Sudeste 0 -- -- 92
2019-01-18 01:00:00 4.1 2 Sudoeste 8 Norte 0 -- -- 90
2019-01-18 00:00:00 4.3 2 Noroeste 6 Noroeste 0 -- -- 91
2019-01-17 23:00:00 4.6 3 Sudoeste 8 Noroeste 0 -- -- 88
2019-01-17 22:00:00 5.4 5 Noroeste 13 Norte 0 -- -- 84
2019-01-17 21:00:00 5.7 9 Nordeste 12 Norte 0 -- -- 85
2019-01-17 20:00:00 6.8 10 Norte 15 Norte 0 -- -- 82
2019-01-17 19:00:00 7 10 Norte 24 Norte 0 -- -- 79
2019-01-17 18:00:00 9.1 19 Norte 30 Noroeste 0 -- -- 71
2019-01-17 17:00:00 10.9 18 Norte 25 Norte 0 -- -- 63
2019-01-17 16:00:00 10 12 Norte 21 Noroeste 0 -- -- 68
2019-01-17 15:00:00 10.2 10 Noroeste 20 Noroeste 0 -- -- 70
2019-01-17 14:00:00 9 6 Noroeste 13 Noroeste 0 -- -- 80
2019-01-17 13:00:00 7.4 6 Noroeste 21 Noroeste 0 -- -- 95
2019-01-17 12:00:00 6.4 19 Noroeste 24 Noroeste 0 -- -- 94
2019-01-17 11:00:00 6.2 4 Oeste 6 Oeste 0 -- -- 88
2019-01-17 10:00:00 5.8 4 Sudoeste 5 Noroeste 0 -- -- 87
2019-01-17 09:00:00 5 2 Sur 5 Noroeste 0 -- -- 87
2019-01-17 08:00:00 4.8 3 Sudoeste 6 Oeste 0 -- -- 88
2019-01-17 07:00:00 4.9 3 Sur 6 Sudoeste 0 -- -- 89
2019-01-17 06:00:00 5.3 4 Nordeste 9 Noroeste 0 -- -- 86
2019-01-17 05:00:00 5.6 6 Norte 15 Norte 0 -- -- 85
2019-01-17 04:00:00 6.5 3 Sudeste 6 Sudeste 0 -- -- 80
2019-01-17 03:00:00 6.8 6 Sudeste 11 Sudeste 0 -- -- 78
2019-01-17 02:00:00 6.3 7 Sudeste 12 Sudeste 0 -- -- 81
2019-01-17 01:00:00 6.6 8 Sudeste 12 Este 0 -- -- 80
2019-01-17 00:00:00 6.5 9 Este 14 Este 0 -- -- 79
2019-01-16 23:00:00 6.5 12 Este 14 Este 0 -- -- 79
2019-01-16 22:00:00 6.2 3 Sur 10 Este 0 -- -- 79
2019-01-16 21:00:00 6.2 8 Nordeste 12 Nordeste 0 -- -- 80
2019-01-16 20:00:00 7.6 6 Nordeste 9 Norte 0 -- -- 77
2019-01-16 19:00:00 8.5 7 Norte 12 Norte 0 -- -- 74
2019-01-16 18:00:00 9.4 10 Norte 19 Noroeste 0 -- -- 70
2019-01-16 17:00:00 10 14 Noroeste 26 Noroeste 0 -- -- 66
2019-01-16 16:00:00 11.2 12 Noroeste 25 Noroeste 0 -- -- 60
2019-01-16 15:00:00 10.5 15 Noroeste 24 Noroeste 0 -- -- 64
2019-01-16 14:00:00 9.9 10 Oeste 18 Oeste 0 -- -- 68
2019-01-16 13:00:00 10.1 12 Oeste 22 Oeste 0 -- -- 68